Time;durP1;ratioP1;P1;durP2;ratioP2;P2;SDS_P1;SDS_P2;PMS_P1;PMS_P2;Temp;Humidity;BMP_temperature;BMP_pressure;BME280_temperature;BME280_humidity;BME280_pressure;Samples;Min_cycle;Max_cycle;Signal;HPM_P1;HPM_P2
2021/04/21 00:00:49;;;;;;;17.08;12.13;;;1.40;99.90;;;;;;2072762;28;20203;-66
2021/04/21 00:01:50;;;;;;;15.60;11.60;;;1.40;99.90;;;;;;2072465;28;20184;-66
2021/04/21 00:02:54;;;;;;;17.02;11.90;;;1.40;99.90;;;;;;2080564;28;20195;-66
2021/04/21 00:03:55;;;;;;;16.73;12.05;;;1.30;99.90;;;;;;2080722;28;20181;-66
2021/04/21 00:04:58;;;;;;;16.27;11.82;;;1.30;99.90;;;;;;2072525;28;20182;-66
2021/04/21 00:06:02;;;;;;;18.80;11.93;;;1.30;99.90;;;;;;2080721;28;20189;-66
2021/04/21 00:07:03;;;;;;;19.90;14.10;;;1.30;99.90;;;;;;2080726;28;20184;-66
2021/04/21 00:08:07;;;;;;;17.95;12.95;;;1.30;99.90;;;;;;2080607;28;20184;-66
2021/04/21 00:09:17;;;;;;;22.02;13.43;;;1.30;99.90;;;;;;2080518;28;20218;-66
2021/04/21 00:10:21;;;;;;;21.95;13.82;;;1.30;99.90;;;;;;2073440;28;20251;-66
2021/04/21 00:11:24;;;;;;;19.92;13.35;;;1.30;99.90;;;;;;2072669;28;20189;-66
2021/04/21 00:12:25;;;;;;;17.73;13.15;;;1.30;99.90;;;;;;2080809;28;20177;-66
2021/04/21 00:13:26;;;;;;;19.75;13.05;;;1.30;99.90;;;;;;2080524;28;20873;-66
2021/04/21 00:14:28;;;;;;;20.73;12.15;;;1.20;99.90;;;;;;2080725;28;20234;-66
2021/04/21 00:15:29;;;;;;;15.82;12.02;;;1.20;99.90;;;;;;2072418;28;20187;-66
2021/04/21 00:16:34;;;;;;;20.20;13.43;;;1.20;99.90;;;;;;2080742;28;20231;-66
2021/04/21 00:17:39;;;;;;;17.63;12.30;;;1.20;99.90;;;;;;2080603;28;20191;-66
2021/04/21 00:18:44;;;;;;;14.52;11.18;;;1.20;99.90;;;;;;2072963;28;20288;-66
2021/04/21 00:19:45;;;;;;;16.77;11.88;;;1.20;99.90;;;;;;2080749;28;20172;-66
2021/04/21 00:21:03;;;;;;;19.92;13.27;;;1.20;99.90;;;;;;2080640;28;20169;-66
2021/04/21 00:22:08;;;;;;;20.00;13.52;;;1.20;99.90;;;;;;2080601;28;20176;-66
2021/04/21 00:23:11;;;;;;;21.60;14.07;;;1.20;99.90;;;;;;2080675;28;20226;-66
2021/04/21 00:24:14;;;;;;;22.65;13.65;;;1.20;99.90;;;;;;2080509;28;20216;-67
2021/04/21 00:25:15;;;;;;;23.63;14.95;;;1.20;99.90;;;;;;2072462;28;20185;-66
2021/04/21 00:26:19;;;;;;;19.45;13.82;;;1.20;99.90;;;;;;2072357;28;20195;-66
2021/04/21 00:27:27;;;;;;;20.70;14.35;;;1.20;99.90;;;;;;2081192;28;20264;-66
2021/04/21 00:28:33;;;;;;;18.27;13.00;;;1.20;99.90;;;;;;2080335;28;20246;-66
2021/04/21 00:29:39;;;;;;;17.58;12.55;;;1.10;99.90;;;;;;2080589;28;20320;-66
2021/04/21 00:30:43;;;;;;;17.80;12.40;;;1.10;99.90;;;;;;2064977;28;20260;-66
2021/04/21 00:31:46;;;;;;;19.90;13.55;;;1.10;99.90;;;;;;2064927;28;20204;-66
2021/04/21 00:32:53;;;;;;;18.70;13.55;;;1.10;99.90;;;;;;2072946;28;20185;-66
2021/04/21 00:33:56;;;;;;;18.90;13.23;;;1.10;99.90;;;;;;2080711;28;20169;-66
2021/04/21 00:34:58;;;;;;;19.02;12.55;;;1.10;99.90;;;;;;2080474;28;20192;-66
2021/04/21 00:36:01;;;;;;;23.48;14.35;;;1.10;99.90;;;;;;2080325;28;20177;-66
2021/04/21 00:37:04;;;;;;;20.27;13.35;;;1.10;99.90;;;;;;2072757;28;20187;-67
2021/04/21 00:38:12;;;;;;;20.02;14.00;;;1.10;99.90;;;;;;2072507;28;20782;-66
2021/04/21 00:39:15;;;;;;;21.10;13.32;;;1.10;99.90;;;;;;2073405;28;20648;-66
2021/04/21 00:40:24;;;;;;;20.60;12.98;;;1.10;99.90;;;;;;2072428;28;20181;-66
2021/04/21 00:41:45;;;;;;;21.25;12.50;;;1.10;99.90;;;;;;2073200;28;20650;-66
2021/04/21 00:43:06;;;;;;;18.83;12.65;;;1.00;99.90;;;;;;2074932;28;20279;-67
2021/04/21 00:44:52;;;;;;;17.85;12.38;;;1.00;99.90;;;;;;2075075;28;20588;-66
2021/04/21 00:46:12;;;;;;;19.10;12.32;;;1.00;99.90;;;;;;2059619;28;20724;-66
2021/04/21 00:47:30;;;;;;;19.33;11.60;;;1.00;99.90;;;;;;2081086;28;20194;-66
2021/04/21 00:48:35;;;;;;;16.17;11.30;;;1.00;99.90;;;;;;2080635;28;20194;-66
2021/04/21 00:50:06;;;;;;;20.52;12.63;;;1.00;99.90;;;;;;2107258;22;20244;-66
2021/04/21 00:51:14;;;;;;;19.58;12.20;;;1.00;99.90;;;;;;2104858;28;20548;-65
2021/04/21 00:52:22;;;;;;;17.67;12.13;;;1.00;99.90;;;;;;2097769;28;20196;-65
2021/04/21 00:53:51;;;;;;;17.80;12.13;;;1.00;99.90;;;;;;2097607;28;20224;-66
2021/04/21 00:55:30;;;;;;;16.73;11.40;;;1.00;99.90;;;;;;2075404;28;20192;-66
2021/04/21 00:56:56;;;;;;;19.63;11.73;;;0.90;99.90;;;;;;2105231;28;20193;-65
2021/04/21 00:58:11;;;;;;;18.70;12.25;;;0.90;99.90;;;;;;2105272;28;20185;-66
2021/04/21 00:59:56;;;;;;;14.52;10.85;;;0.90;99.90;;;;;;2102749;28;20276;-66
2021/04/21 01:04:11;;;;;;;18.50;11.57;;;0.80;99.90;;;;;;2101585;28;20392;-66
2021/04/21 01:05:17;;;;;;;15.45;10.50;;;0.80;99.90;;;;;;2089106;28;20609;-65
2021/04/21 01:06:26;;;;;;;19.23;12.40;;;0.80;99.90;;;;;;2088986;28;20183;-66
2021/04/21 01:07:28;;;;;;;22.60;14.10;;;0.80;99.90;;;;;;2088562;28;20868;-66
2021/04/21 01:08:38;;;;;;;21.02;13.80;;;0.80;99.90;;;;;;2080197;28;20184;-65
2021/04/21 01:09:40;;;;;;;20.17;13.18;;;0.80;99.90;;;;;;2088458;28;20202;-66
2021/04/21 01:11:00;;;;;;;22.75;14.15;;;0.70;99.90;;;;;;2088319;28;20186;-66
2021/04/21 01:12:08;;;;;;;23.25;13.88;;;0.80;99.90;;;;;;2082551;28;20317;-65
2021/04/21 01:13:10;;;;;;;21.65;13.20;;;0.80;99.90;;;;;;2081124;28;20263;-65
2021/04/21 01:14:20;;;;;;;22.77;13.88;;;0.70;99.90;;;;;;2080349;28;20180;-66
2021/04/21 01:15:21;;;;;;;19.27;12.80;;;0.70;99.90;;;;;;2081307;28;20214;-66
2021/04/21 01:16:27;;;;;;;21.02;13.73;;;0.70;99.90;;;;;;2088480;28;20165;-65
2021/04/21 01:17:28;;;;;;;21.83;13.02;;;0.70;99.90;;;;;;2088302;28;20700;-65
2021/04/21 01:18:32;;;;;;;19.70;12.30;;;0.70;99.90;;;;;;2080137;28;20168;-65
2021/04/21 01:20:02;;;;;;;20.33;13.13;;;0.70;99.90;;;;;;2080209;28;20193;-65
2021/04/21 01:21:29;;;;;;;23.83;13.57;;;0.70;99.90;;;;;;2088533;28;20243;-65
2021/04/21 01:22:59;;;;;;;17.13;11.18;;;0.70;99.90;;;;;;2088908;28;20172;-64
2021/04/21 01:24:34;;;;;;;18.48;11.85;;;0.70;99.90;;;;;;2090320;28;20182;-65
2021/04/21 01:26:23;;;;;;;17.05;11.63;;;0.70;99.90;;;;;;2090008;28;20176;-65
2021/04/21 01:28:05;;;;;;;17.23;11.40;;;0.70;99.90;;;;;;2088156;28;20228;-65
2021/04/21 01:29:09;;;;;;;20.05;12.07;;;0.70;99.90;;;;;;2086495;28;20193;-65
2021/04/21 01:30:31;;;;;;;20.15;13.13;;;0.70;99.90;;;;;;2082284;28;20173;-65
2021/04/21 01:31:33;;;;;;;21.63;12.65;;;0.70;99.90;;;;;;2089793;28;20214;-65
2021/04/21 01:32:34;;;;;;;19.67;13.40;;;0.60;99.90;;;;;;2089897;28;20195;-65
2021/04/21 01:33:37;;;;;;;19.58;13.30;;;0.60;99.90;;;;;;2081615;28;20683;-64
2021/04/21 01:34:39;;;;;;;21.70;13.65;;;0.60;99.90;;;;;;2089978;28;20183;-65
2021/04/21 01:35:48;;;;;;;21.67;13.85;;;0.60;99.90;;;;;;2081511;28;20709;-65
2021/04/21 01:36:51;;;;;;;18.95;12.52;;;0.60;99.90;;;;;;2082898;28;20174;-65
2021/04/21 01:37:55;;;;;;;22.38;13.20;;;0.60;99.90;;;;;;2089668;28;20183;-65
2021/04/21 01:39:02;;;;;;;21.35;13.27;;;0.60;99.90;;;;;;2082139;28;20654;-65
2021/04/21 01:40:10;;;;;;;19.40;12.60;;;0.60;99.90;;;;;;2089902;28;20176;-65
2021/04/21 01:41:18;;;;;;;23.25;14.25;;;0.60;99.90;;;;;;2089989;28;20180;-65
2021/04/21 01:42:20;;;;;;;22.67;14.10;;;0.60;99.90;;;;;;2091647;28;20556;-65
2021/04/21 01:43:34;;;;;;;21.38;13.00;;;0.60;99.90;;;;;;2090379;28;20175;-65
2021/04/21 01:44:40;;;;;;;22.33;14.07;;;0.50;99.90;;;;;;2089696;28;20188;-65
2021/04/21 01:45:43;;;;;;;25.08;14.85;;;0.60;99.90;;;;;;2082207;28;20578;-65
2021/04/21 01:46:53;;;;;;;24.42;15.13;;;0.60;99.90;;;;;;2082090;28;20176;-64
2021/04/21 01:47:58;;;;;;;22.63;14.27;;;0.60;99.90;;;;;;2089733;28;20252;-65
2021/04/21 01:49:21;;;;;;;21.65;13.55;;;0.60;99.90;;;;;;2081798;28;20184;-65
2021/04/21 01:50:22;;;;;;;25.67;14.55;;;0.60;99.90;;;;;;2084486;28;20191;-65
2021/04/21 01:51:31;;;;;;;25.80;15.40;;;0.60;99.90;;;;;;2081672;28;20215;-65
2021/04/21 01:52:49;;;;;;;21.90;14.15;;;0.60;99.90;;;;;;2089934;28;20289;-65
2021/04/21 01:53:57;;;;;;;20.25;13.15;;;0.60;99.90;;;;;;2089718;28;20192;-65
2021/04/21 01:55:06;;;;;;;19.85;13.27;;;0.50;99.90;;;;;;2082413;28;20171;-65
2021/04/21 01:56:27;;;;;;;21.55;12.57;;;0.50;99.90;;;;;;2082555;28;20259;-64
2021/04/21 01:57:44;;;;;;;21.58;13.60;;;0.50;99.90;;;;;;2089943;28;20611;-65
2021/04/21 01:59:15;;;;;;;21.88;13.73;;;0.50;99.90;;;;;;2089575;28;20214;-65
2021/04/21 02:00:42;;;;;;;22.15;14.00;;;0.50;99.90;;;;;;2090001;28;20266;-65
2021/04/21 02:02:00;;;;;;;24.85;14.73;;;0.50;99.90;;;;;;2089532;28;20198;-65
2021/04/21 02:03:14;;;;;;;23.60;14.45;;;0.40;99.90;;;;;;2083744;28;20177;-65
2021/04/21 02:04:48;;;;;;;24.20;13.85;;;0.40;99.90;;;;;;2083337;28;20217;-65
2021/04/21 02:06:15;;;;;;;23.08;13.73;;;0.50;99.90;;;;;;2089968;28;20174;-65
2021/04/21 02:07:35;;;;;;;24.55;14.02;;;0.40;99.90;;;;;;2089774;28;20248;-65
2021/04/21 02:09:29;;;;;;;26.30;14.25;;;0.40;99.90;;;;;;2083845;28;20190;-64
2021/04/21 02:10:56;;;;;;;22.25;13.23;;;0.40;99.90;;;;;;2088597;28;20365;-66
2021/04/21 02:12:33;;;;;;;24.67;14.23;;;0.40;99.90;;;;;;2084588;28;20226;-65
2021/04/21 02:13:49;;;;;;;24.63;13.27;;;0.40;99.90;;;;;;2086171;28;20262;-64
2021/04/21 02:15:05;;;;;;;22.58;13.93;;;0.40;99.90;;;;;;2089785;28;20179;-65
2021/04/21 02:16:36;;;;;;;24.35;14.15;;;0.40;99.90;;;;;;2090164;28;20236;-64
2021/04/21 02:17:50;;;;;;;25.52;14.52;;;0.40;99.90;;;;;;2089443;28;20181;-65
2021/04/21 02:19:23;;;;;;;22.40;14.18;;;0.40;99.90;;;;;;2089628;28;20174;-65
2021/04/21 02:20:29;;;;;;;23.08;13.50;;;0.40;99.90;;;;;;2080877;28;20183;-64
2021/04/21 02:21:50;;;;;;;25.80;15.35;;;0.40;99.90;;;;;;2089345;28;20245;-64
2021/04/21 02:23:24;;;;;;;25.55;14.25;;;0.40;99.90;;;;;;2083981;28;20293;-65
2021/04/21 02:25:01;;;;;;;25.00;14.05;;;0.40;99.90;;;;;;2085744;28;20172;-65
2021/04/21 02:26:42;;;;;;;24.85;14.27;;;0.40;99.90;;;;;;2089682;28;20248;-65
2021/04/21 02:28:13;;;;;;;22.77;13.35;;;0.40;99.90;;;;;;2089901;28;20183;-65
2021/04/21 02:29:46;;;;;;;22.13;13.05;;;0.40;99.90;;;;;;2090032;28;20171;-64
2021/04/21 02:31:16;;;;;;;21.73;14.02;;;0.40;99.90;;;;;;2087975;28;20278;-64
2021/04/21 02:32:45;;;;;;;29.65;15.65;;;0.30;99.90;;;;;;2085166;28;20562;-65
2021/04/21 02:34:30;;;;;;;26.85;14.98;;;0.40;99.90;;;;;;2081070;28;20199;-65
2021/04/21 02:35:52;;;;;;;27.52;15.25;;;0.30;99.90;;;;;;2081699;28;20210;-65
2021/04/21 02:37:07;;;;;;;25.35;14.73;;;0.30;99.90;;;;;;2081212;28;20206;-66
2021/04/21 02:38:45;;;;;;;25.27;15.70;;;0.30;99.90;;;;;;2081387;28;20175;-64
2021/04/21 02:40:27;;;;;;;24.80;14.45;;;0.30;99.90;;;;;;2081024;28;20200;-65
2021/04/21 02:41:51;;;;;;;25.10;15.02;;;0.30;99.90;;;;;;2081314;28;20182;-65
2021/04/21 02:43:27;;;;;;;25.10;13.88;;;0.30;99.90;;;;;;2081846;28;20186;-64
2021/04/21 02:44:48;;;;;;;25.90;14.70;;;0.30;99.90;;;;;;2081156;28;20198;-65
2021/04/21 02:46:46;;;;;;;27.25;14.85;;;0.30;99.90;;;;;;2081261;28;20188;-65
2021/04/21 02:47:59;;;;;;;26.27;14.57;;;0.20;99.90;;;;;;2081606;28;20231;-65
2021/04/21 02:49:21;;;;;;;22.80;13.70;;;0.20;99.90;;;;;;2081026;28;20602;-65
2021/04/21 02:50:43;;;;;;;23.80;14.05;;;0.20;99.90;;;;;;2083882;28;20210;-65
2021/04/21 02:52:09;;;;;;;24.80;13.93;;;0.20;99.90;;;;;;2080706;28;20215;-65
2021/04/21 02:53:42;;;;;;;24.13;14.43;;;0.20;99.90;;;;;;2076293;28;20230;-64
2021/04/21 02:55:09;;;;;;;29.60;16.42;;;0.20;99.90;;;;;;2077043;28;20263;-65
2021/04/21 02:56:37;;;;;;;30.58;15.45;;;0.20;99.90;;;;;;2081177;28;20217;-65
2021/04/21 02:58:05;;;;;;;28.83;16.17;;;0.20;99.90;;;;;;2064206;28;20220;-65
2021/04/21 02:59:34;;;;;;;35.17;17.25;;;0.20;99.90;;;;;;2081069;28;20673;-65
2021/04/21 03:00:51;;;;;;;31.33;15.32;;;0.10;99.90;;;;;;2081570;28;20253;-65
2021/04/21 03:01:57;;;;;;;29.83;16.13;;;0.10;99.90;;;;;;2080768;28;20716;-65
2021/04/21 03:03:13;;;;;;;30.30;16.35;;;0.10;99.90;;;;;;2080911;28;20218;-65
2021/04/21 03:04:45;;;;;;;32.47;17.25;;;0.10;99.90;;;;;;2080982;28;20187;-65
2021/04/21 03:05:54;;;;;;;32.22;16.85;;;0.10;99.90;;;;;;2081239;28;20179;-65
2021/04/21 03:06:57;;;;;;;30.38;16.10;;;0.10;99.90;;;;;;2080806;28;20183;-65
2021/04/21 03:08:10;;;;;;;27.20;17.05;;;0.10;99.90;;;;;;2073005;28;20180;-65
2021/04/21 03:09:19;;;;;;;29.58;16.85;;;0.10;99.90;;;;;;2082337;28;20554;-65
2021/04/21 03:10:27;;;;;;;33.10;16.38;;;0.10;99.90;;;;;;2088158;28;20173;-65
2021/04/21 03:11:30;;;;;;;31.92;17.95;;;0.00;99.90;;;;;;2080525;28;20225;-65
2021/04/21 03:12:33;;;;;;;27.85;17.63;;;0.00;99.90;;;;;;2072907;28;20652;-64
2021/04/21 03:13:46;;;;;;;30.13;17.13;;;0.00;99.90;;;;;;2081145;28;20192;-65
2021/04/21 03:14:52;;;;;;;33.67;16.83;;;0.00;99.90;;;;;;2080748;28;20183;-64
2021/04/21 03:15:59;;;;;;;40.28;18.92;;;0.00;99.90;;;;;;2073270;28;20757;-65
2021/04/21 03:17:05;;;;;;;35.80;18.45;;;0.00;99.90;;;;;;2073402;28;20232;-65
2021/04/21 03:18:08;;;;;;;31.33;17.45;;;0.00;99.90;;;;;;2073430;28;20213;-66
2021/04/21 03:19:14;;;;;;;26.58;16.00;;;0.00;99.90;;;;;;2080745;28;20287;-65
2021/04/21 03:20:19;;;;;;;31.10;17.80;;;0.00;99.90;;;;;;2080852;28;20266;-65
2021/04/21 03:21:26;;;;;;;36.97;18.02;;;0.00;99.90;;;;;;2072988;28;20663;-65
2021/04/21 03:22:30;;;;;;;30.35;17.08;;;0.00;99.90;;;;;;2081571;28;20263;-65
2021/04/21 03:23:33;;;;;;;35.10;17.90;;;0.00;99.90;;;;;;2080782;28;20184;-65
2021/04/21 03:24:37;;;;;;;26.92;15.65;;;0.00;99.90;;;;;;2072781;28;20185;-65
2021/04/21 03:25:42;;;;;;;25.38;15.93;;;0.00;99.90;;;;;;2072714;28;20266;-65
2021/04/21 03:26:47;;;;;;;28.23;16.73;;;0.00;99.90;;;;;;2073062;28;20176;-65
2021/04/21 03:27:54;;;;;;;30.52;17.02;;;0.00;99.90;;;;;;2073100;28;20725;-65
2021/04/21 03:28:59;;;;;;;30.58;16.52;;;0.00;99.90;;;;;;2080719;28;20186;-66
2021/04/21 03:30:08;;;;;;;29.30;16.33;;;0.00;99.90;;;;;;2080451;28;20182;-64
2021/04/21 03:31:12;;;;;;;34.05;18.52;;;0.00;99.90;;;;;;2065260;28;20583;-65
2021/04/21 03:32:19;;;;;;;29.73;17.83;;;0.00;99.90;;;;;;2072946;28;20225;-65
2021/04/21 03:33:33;;;;;;;30.65;17.90;;;0.00;99.90;;;;;;2088175;28;20289;-66
2021/04/21 03:34:37;;;;;;;26.83;15.75;;;0.00;99.90;;;;;;2074189;28;20173;-65
2021/04/21 03:35:39;;;;;;;31.38;17.08;;;0.00;99.90;;;;;;2080451;28;20242;-65
2021/04/21 03:36:42;;;;;;;28.65;17.40;;;0.00;99.90;;;;;;2072551;28;20177;-65
2021/04/21 03:38:01;;;;;;;27.48;16.25;;;0.00;99.90;;;;;;2072592;28;20774;-65
2021/04/21 03:39:02;;;;;;;29.13;16.23;;;0.00;99.90;;;;;;2080425;28;20172;-65
2021/04/21 03:40:04;;;;;;;29.37;16.50;;;0.00;99.90;;;;;;2080320;28;20255;-65
2021/04/21 03:41:05;;;;;;;28.90;16.67;;;0.00;99.90;;;;;;2080941;28;20669;-65
2021/04/21 03:42:06;;;;;;;32.05;18.05;;;0.00;99.90;;;;;;2080242;28;20227;-65
2021/04/21 03:43:08;;;;;;;29.73;17.27;;;0.00;99.90;;;;;;2072510;28;20183;-65
2021/04/21 03:44:11;;;;;;;32.83;18.40;;;0.00;99.90;;;;;;2080444;28;20583;-65
2021/04/21 03:45:13;;;;;;;38.85;19.35;;;0.00;99.90;;;;;;2080127;28;20184;-65
2021/04/21 03:46:14;;;;;;;33.22;18.40;;;0.00;99.90;;;;;;2080386;28;20683;-65
2021/04/21 03:47:15;;;;;;;24.98;16.17;;;0.00;99.90;;;;;;2080504;28;20234;-65
2021/04/21 03:48:17;;;;;;;32.17;17.50;;;0.00;99.90;;;;;;2072139;28;20255;-65
2021/04/21 03:49:18;;;;;;;30.27;17.83;;;0.00;99.90;;;;;;2080249;28;20207;-65
2021/04/21 03:50:20;;;;;;;35.90;18.67;;;0.00;99.90;;;;;;2080426;28;20561;-65
2021/04/21 03:51:21;;;;;;;30.90;16.80;;;0.00;99.90;;;;;;2080260;28;20180;-65
2021/04/21 03:52:25;;;;;;;29.70;17.05;;;0.00;99.90;;;;;;2080991;28;20232;-65
2021/04/21 03:53:33;;;;;;;28.67;16.50;;;0.00;99.90;;;;;;2080698;28;20890;-65
2021/04/21 03:54:34;;;;;;;34.72;17.98;;;0.00;99.90;;;;;;2080534;28;20267;-65
2021/04/21 03:55:37;;;;;;;31.42;17.23;;;0.00;99.90;;;;;;2080664;28;20242;-65
2021/04/21 03:56:41;;;;;;;26.58;16.15;;;0.00;99.90;;;;;;2080538;28;20188;-65
2021/04/21 03:57:46;;;;;;;28.35;16.50;;;0.00;99.90;;;;;;2081151;28;20175;-64
2021/04/21 03:58:48;;;;;;;31.98;16.80;;;0.00;99.90;;;;;;2080502;28;20179;-65
2021/04/21 03:59:51;;;;;;;29.65;18.30;;;0.00;99.90;;;;;;2072426;28;20383;-65
2021/04/21 04:01:23;;;;;;;34.50;18.15;;;0.00;99.90;;;;;;2080676;28;20188;-65
2021/04/21 04:02:26;;;;;;;30.95;17.40;;;0.00;99.90;;;;;;2080996;28;20164;-65
2021/04/21 04:03:29;;;;;;;36.40;18.70;;;-0.10;99.90;;;;;;2080584;28;20179;-65
2021/04/21 04:04:31;;;;;;;29.05;16.98;;;-0.10;99.90;;;;;;2080470;28;20176;-65
2021/04/21 04:05:42;;;;;;;27.92;16.15;;;-0.10;99.90;;;;;;2072290;28;20637;-65
2021/04/21 04:06:48;;;;;;;33.03;17.77;;;0.00;99.90;;;;;;2073745;28;20706;-64
2021/04/21 04:07:51;;;;;;;31.98;16.48;;;0.00;99.90;;;;;;2081358;28;20986;-65
2021/04/21 04:09:04;;;;;;;36.25;20.48;;;0.00;99.90;;;;;;2082293;28;20285;-65
2021/04/21 04:10:09;;;;;;;38.13;18.98;;;0.00;99.90;;;;;;2081861;28;20621;-66
2021/04/21 04:11:14;;;;;;;33.75;18.88;;;0.00;99.90;;;;;;2082311;28;20726;-65
2021/04/21 04:12:17;;;;;;;37.30;19.17;;;0.00;99.90;;;;;;2082067;28;20256;-65
2021/04/21 04:13:19;;;;;;;34.10;19.50;;;0.00;99.90;;;;;;2081919;28;20189;-66
2021/04/21 04:14:24;;;;;;;37.70;20.35;;;0.00;99.90;;;;;;2082267;28;20178;-66
2021/04/21 04:15:26;;;;;;;29.88;17.30;;;0.00;99.90;;;;;;2082140;28;20190;-65
2021/04/21 04:16:27;;;;;;;29.63;18.00;;;0.00;99.90;;;;;;2082228;28;20266;-65
2021/04/21 04:17:31;;;;;;;38.00;19.02;;;0.00;99.90;;;;;;2082480;28;20250;-66
2021/04/21 04:18:33;;;;;;;32.00;18.10;;;0.00;99.90;;;;;;2081956;28;20181;-65
2021/04/21 04:19:37;;;;;;;34.42;18.70;;;-0.10;99.90;;;;;;2081716;28;20187;-66
2021/04/21 04:20:41;;;;;;;33.35;18.15;;;-0.10;99.90;;;;;;2073857;28;20176;-65
2021/04/21 04:21:46;;;;;;;37.13;19.50;;;0.00;99.90;;;;;;2081248;28;20678;-65
2021/04/21 04:22:50;;;;;;;30.40;17.98;;;0.00;99.90;;;;;;2081783;28;20190;-65
2021/04/21 04:23:51;;;;;;;41.05;21.52;;;0.00;99.90;;;;;;2081761;28;20194;-65
2021/04/21 04:24:55;;;;;;;36.30;20.40;;;0.00;99.90;;;;;;2081697;28;20611;-65
2021/04/21 04:25:58;;;;;;;41.03;20.60;;;0.00;99.90;;;;;;2073243;28;20208;-65
2021/04/21 04:27:00;;;;;;;29.95;17.95;;;0.00;99.90;;;;;;2081056;28;20184;-65
2021/04/21 04:28:02;;;;;;;35.72;20.10;;;0.00;99.90;;;;;;2073921;28;20177;-65
2021/04/21 04:29:03;;;;;;;35.45;20.25;;;0.00;99.90;;;;;;2081798;28;20180;-65
2021/04/21 04:30:05;;;;;;;34.13;19.77;;;0.00;99.90;;;;;;2082016;28;20181;-66
2021/04/21 04:31:07;;;;;;;34.95;20.20;;;0.00;99.90;;;;;;2082183;28;20195;-65
2021/04/21 04:32:12;;;;;;;33.50;18.80;;;0.10;99.90;;;;;;2081378;28;20208;-65
2021/04/21 04:33:18;;;;;;;36.10;19.88;;;0.10;99.90;;;;;;2081625;28;20278;-65
2021/04/21 04:34:21;;;;;;;32.20;18.63;;;0.10;99.90;;;;;;2081676;28;20203;-66
2021/04/21 04:35:22;;;;;;;33.50;19.50;;;0.20;99.90;;;;;;2081797;28;20858;-66
2021/04/21 04:36:24;;;;;;;38.13;20.37;;;0.20;99.90;;;;;;2081235;28;20172;-66
2021/04/21 04:37:27;;;;;;;31.08;17.63;;;0.20;99.90;;;;;;2073402;28;20180;-66
2021/04/21 04:38:29;;;;;;;38.97;18.60;;;0.20;99.90;;;;;;2081313;28;20486;-66
2021/04/21 04:39:30;;;;;;;32.80;19.25;;;0.20;99.90;;;;;;2064849;28;20538;-66
2021/04/21 04:40:32;;;;;;;30.75;18.75;;;0.20;99.90;;;;;;2065004;28;20172;-66
2021/04/21 04:41:34;;;;;;;35.53;19.90;;;0.20;99.90;;;;;;2080966;28;20185;-66
2021/04/21 04:42:37;;;;;;;30.60;18.20;;;0.20;99.90;;;;;;2081441;28;20172;-66
2021/04/21 04:43:40;;;;;;;33.45;18.90;;;0.20;99.90;;;;;;2082178;28;20175;-65
2021/04/21 04:44:44;;;;;;;36.78;19.73;;;0.20;99.90;;;;;;2082056;28;20584;-66
2021/04/21 04:46:00;;;;;;;30.58;17.88;;;0.20;99.90;;;;;;2074315;28;20611;-65
2021/04/21 04:47:05;;;;;;;33.88;18.42;;;0.20;99.90;;;;;;2075749;28;20183;-65
2021/04/21 04:48:15;;;;;;;36.60;20.35;;;0.30;99.90;;;;;;2074400;28;20714;-65
2021/04/21 04:49:20;;;;;;;29.90;18.17;;;0.30;99.90;;;;;;2081845;28;20180;-64
2021/04/21 04:50:23;;;;;;;29.85;17.58;;;0.30;99.90;;;;;;2081911;28;20179;-66
2021/04/21 04:51:24;;;;;;;31.75;17.10;;;0.30;99.90;;;;;;2081653;28;20167;-65
2021/04/21 04:52:26;;;;;;;33.97;18.67;;;0.30;99.90;;;;;;2081954;28;20185;-66
2021/04/21 04:53:29;;;;;;;32.38;18.23;;;0.30;99.90;;;;;;2073960;28;20644;-66
2021/04/21 04:54:33;;;;;;;26.42;16.40;;;0.30;99.90;;;;;;2081225;28;20180;-65
2021/04/21 04:55:35;;;;;;;31.80;19.23;;;0.30;99.90;;;;;;2080508;28;20188;-66
2021/04/21 04:56:36;;;;;;;35.30;19.48;;;0.40;99.90;;;;;;2079654;28;20182;-66
2021/04/21 04:57:45;;;;;;;36.03;18.77;;;0.40;99.90;;;;;;2079372;28;20184;-65
2021/04/21 04:58:47;;;;;;;35.08;19.85;;;0.40;99.90;;;;;;2079926;28;20188;-66
2021/04/21 04:59:48;;;;;;;35.45;20.98;;;0.50;99.90;;;;;;2079898;28;20275;-66
2021/04/21 05:00:49;;;;;;;34.55;20.58;;;0.50;99.90;;;;;;2079840;28;20218;-65
2021/04/21 05:02:00;;;;;;;34.27;20.67;;;0.50;99.90;;;;;;2079765;28;20180;-66
2021/04/21 05:03:23;;;;;;;41.22;20.92;;;0.60;99.90;;;;;;2080629;28;20183;-65
2021/04/21 05:04:40;;;;;;;35.83;18.92;;;0.60;99.90;;;;;;2080558;28;20180;-66
2021/04/21 05:05:44;;;;;;;38.70;19.92;;;0.60;99.90;;;;;;2079890;28;20700;-66
2021/04/21 05:07:02;;;;;;;30.42;18.73;;;0.60;99.90;;;;;;2079841;28;20670;-65
2021/04/21 05:08:16;;;;;;;34.50;18.95;;;0.60;99.90;;;;;;2080572;28;20226;-65
2021/04/21 05:09:19;;;;;;;39.17;22.00;;;0.60;99.90;;;;;;2080403;28;20177;-65
2021/04/21 05:10:50;;;;;;;34.50;19.77;;;0.70;99.90;;;;;;2079829;28;20631;-66
2021/04/21 05:11:56;;;;;;;31.95;18.13;;;0.70;99.90;;;;;;2079280;28;20250;-65
2021/04/21 05:13:02;;;;;;;33.65;18.75;;;0.70;99.90;;;;;;2080589;28;20186;-66
2021/04/21 05:14:10;;;;;;;31.55;18.75;;;0.70;99.90;;;;;;2080545;28;20175;-66
2021/04/21 05:15:37;;;;;;;31.88;18.48;;;0.80;99.90;;;;;;2079992;28;20590;-66
2021/04/21 05:16:56;;;;;;;30.25;17.95;;;0.80;99.90;;;;;;2080045;28;20491;-65
2021/04/21 05:17:59;;;;;;;35.05;19.27;;;0.80;99.90;;;;;;2080362;28;20231;-65
2021/04/21 05:19:09;;;;;;;37.65;20.48;;;0.80;99.90;;;;;;2080436;28;20191;-65
2021/04/21 05:20:48;;;;;;;34.58;18.52;;;0.80;99.90;;;;;;2080359;28;20198;-65
2021/04/21 05:22:42;;;;;;;30.98;19.17;;;0.90;99.90;;;;;;2080200;28;20183;-66
2021/04/21 05:24:21;;;;;;;28.45;17.10;;;0.90;99.90;;;;;;2080293;28;20176;-65
2021/04/21 05:26:25;;;;;;;31.40;18.05;;;0.90;99.90;;;;;;2080498;28;20244;-66
2021/04/21 05:28:09;;;;;;;31.35;17.20;;;0.90;99.90;;;;;;2081777;28;20283;-66
2021/04/21 05:30:06;;;;;;;33.45;18.13;;;0.90;99.90;;;;;;2080268;28;20218;-66
2021/04/21 05:31:50;;;;;;;37.13;18.55;;;0.90;99.90;;;;;;2080327;28;20238;-65
2021/04/21 05:33:06;;;;;;;31.50;18.17;;;0.90;99.90;;;;;;2080395;28;20194;-66
2021/04/21 05:34:28;;;;;;;33.53;18.58;;;1.00;99.90;;;;;;2080491;28;20172;-65
2021/04/21 05:36:24;;;;;;;34.95;18.63;;;1.00;99.90;;;;;;2080477;28;20851;-66
2021/04/21 05:38:24;;;;;;;36.33;19.77;;;1.00;99.90;;;;;;2080507;28;20183;-65
2021/04/21 05:39:42;;;;;;;33.67;17.40;;;1.10;99.90;;;;;;2071500;28;20227;-66
2021/04/21 05:41:40;;;;;;;33.22;18.08;;;1.10;99.90;;;;;;2074181;28;20177;-66
2021/04/21 05:43:32;;;;;;;30.58;17.13;;;1.10;99.90;;;;;;2079801;28;20269;-66
2021/04/21 05:45:29;;;;;;;29.45;17.35;;;1.10;99.90;;;;;;2069727;28;20366;-65
2021/04/21 05:46:57;;;;;;;28.17;16.75;;;1.10;99.90;;;;;;2068176;28;20200;-66
2021/04/21 05:48:25;;;;;;;32.22;18.60;;;1.20;99.90;;;;;;2080447;28;20175;-65
2021/04/21 05:50:03;;;;;;;36.35;18.67;;;1.20;99.90;;;;;;2079490;28;20223;-65
2021/04/21 05:51:31;;;;;;;30.33;18.13;;;1.30;99.90;;;;;;2080203;28;20202;-65
2021/04/21 05:53:27;;;;;;;31.80;18.52;;;1.30;99.90;;;;;;2080497;28;20181;-64
2021/04/21 05:55:04;;;;;;;32.92;17.48;;;1.30;99.90;;;;;;2079883;28;20193;-63
2021/04/21 05:56:24;;;;;;;31.58;17.45;;;1.30;99.90;;;;;;2076659;28;20417;-64
2021/04/21 05:58:01;;;;;;;35.15;18.30;;;1.40;99.90;;;;;;2080134;28;20666;-65
2021/04/21 05:59:29;;;;;;;30.75;18.10;;;1.40;99.90;;;;;;2080377;28;20204;-64
2021/04/21 06:01:16;;;;;;;31.25;17.63;;;1.40;99.90;;;;;;2080404;28;20778;-64
2021/04/21 06:02:18;;;;;;;26.20;16.40;;;1.40;99.90;;;;;;2080559;28;20200;-64
2021/04/21 06:03:21;;;;;;;36.65;21.63;;;1.50;99.90;;;;;;2079524;28;20196;-64
2021/04/21 06:04:23;;;;;;;29.33;17.58;;;1.50;99.90;;;;;;2071717;28;20564;-64
2021/04/21 06:05:24;;;;;;;30.08;17.58;;;1.50;99.90;;;;;;2079518;28;20191;-65
2021/04/21 06:06:27;;;;;;;33.77;18.87;;;1.60;99.90;;;;;;2080344;28;20734;-65
2021/04/21 06:07:27;;;;;;;38.78;21.58;;;1.60;99.90;;;;;;2080244;28;20180;-65
2021/04/21 06:08:30;;;;;;;31.50;18.80;;;1.70;99.90;;;;;;2080490;28;20255;-64
2021/04/21 06:09:30;;;;;;;42.85;23.23;;;1.70;99.90;;;;;;2081148;28;20200;-64
2021/04/21 06:10:31;;;;;;;42.70;22.53;;;1.80;99.90;;;;;;2081245;28;20208;-65
2021/04/21 06:11:32;;;;;;;42.90;24.40;;;1.80;99.90;;;;;;2081570;28;20169;-65
2021/04/21 06:12:32;;;;;;;35.07;20.87;;;1.90;99.90;;;;;;2081897;28;20559;-64
2021/04/21 06:13:34;;;;;;;33.67;19.90;;;1.90;99.90;;;;;;2081385;28;20253;-65
2021/04/21 06:14:35;;;;;;;33.70;20.08;;;2.00;99.90;;;;;;2081244;28;20648;-64
2021/04/21 06:15:39;;;;;;;32.80;20.55;;;2.00;99.90;;;;;;2081319;28;20185;-64
2021/04/21 06:16:40;;;;;;;31.13;20.05;;;2.00;99.90;;;;;;2081288;28;20252;-64
2021/04/21 06:17:45;;;;;;;39.20;23.70;;;2.10;99.90;;;;;;2081842;28;20196;-65